sensor_id;sensor_type;location;lat;lon;timestamp;pressure;altitude;pressure_sealevel;temperature;humidity
63622;BME280;49770;47.544;19.074;2023-03-23T05:16:04;100208.81;;;3.73;100.00
63622;BME280;49770;47.544;19.074;2023-03-23T05:19:07;100208.81;;;3.73;100.00
63622;BME280;49770;47.544;19.074;2023-03-23T05:22:10;100214.09;;;3.34;100.00
63622;BME280;49770;47.544;19.074;2023-03-23T05:25:17;100212.94;;;3.46;100.00
63622;BME280;49770;47.544;19.074;2023-03-23T05:28:23;100203.81;;;3.62;100.00
63622;BME280;49770;47.544;19.074;2023-03-23T05:31:26;100205.06;;;3.84;100.00
63622;BME280;49770;47.544;19.074;2023-03-23T05:34:29;100200.25;;;4.01;100.00
63622;BME280;49770;47.544;19.074;2023-03-23T05:37:34;100191.81;;;4.23;100.00
63622;BME280;49770;47.544;19.074;2023-03-23T05:40:36;100195.56;;;4.48;100.00
63622;BME280;49770;47.544;19.074;2023-03-23T05:43:40;100197.56;;;4.69;100.00
63622;BME280;49770;47.544;19.074;2023-03-23T05:46:42;100191.62;;;4.94;100.00
63622;BME280;49770;47.544;19.074;2023-03-23T05:49:45;100184.78;;;5.19;100.00
63622;BME280;49770;47.544;19.074;2023-03-23T05:52:50;100192.72;;;5.46;100.00
63622;BME280;49770;47.544;19.074;2023-03-23T05:55:58;100185.94;;;5.65;100.00
63622;BME280;49770;47.544;19.074;2023-03-23T05:59:00;100185.09;;;5.92;100.00
63622;BME280;49770;47.544;19.074;2023-03-23T06:02:04;100179.56;;;6.27;100.00
63622;BME280;49770;47.544;19.074;2023-03-23T06:05:07;100182.50;;;6.92;100.00
63622;BME280;49770;47.544;19.074;2023-03-23T06:08:10;100186.47;;;7.93;100.00
63622;BME280;49770;47.544;19.074;2023-03-23T06:11:12;100188.06;;;9.93;100.00
63622;BME280;49770;47.544;19.074;2023-03-23T06:14:15;100191.12;;;12.31;95.70
63622;BME280;49770;47.544;19.074;2023-03-23T06:17:19;100198.12;;;14.04;82.59
63622;BME280;49770;47.544;19.074;2023-03-23T06:20:22;100190.81;;;16.44;69.62
63622;BME280;49770;47.544;19.074;2023-03-23T06:23:26;100184.97;;;18.08;58.84
63622;BME280;49770;47.544;19.074;2023-03-23T06:26:32;100186.63;;;19.45;48.24
63622;BME280;49770;47.544;19.074;2023-03-23T06:29:36;100186.09;;;19.90;45.93
63622;BME280;49770;47.544;19.074;2023-03-23T06:32:38;100185.53;;;20.74;42.93
63622;BME280;49770;47.544;19.074;2023-03-23T06:35:43;100184.50;;;20.85;41.93
63622;BME280;49770;47.544;19.074;2023-03-23T06:38:48;100187.41;;;20.64;40.66
63622;BME280;49770;47.544;19.074;2023-03-23T06:41:51;100179.63;;;20.60;41.21
63622;BME280;49770;47.544;19.074;2023-03-23T06:44:53;100190.06;;;19.96;41.99
63622;BME280;49770;47.544;19.074;2023-03-23T06:47:58;100193.16;;;19.91;42.99
63622;BME280;49770;47.544;19.074;2023-03-23T06:51:03;100188.19;;;20.26;41.46
63622;BME280;49770;47.544;19.074;2023-03-23T06:54:06;100193.53;;;21.32;38.88
63622;BME280;49770;47.544;19.074;2023-03-23T06:57:09;100201.59;;;21.04;38.64
63622;BME280;49770;47.544;19.074;2023-03-23T07:00:12;100198.12;;;20.36;40.10
63622;BME280;49770;47.544;19.074;2023-03-23T07:03:15;100189.78;;;19.99;40.74
63622;BME280;49770;47.544;19.074;2023-03-23T07:06:18;100192.38;;;18.89;41.38
63622;BME280;49770;47.544;19.074;2023-03-23T07:09:21;100200.59;;;17.70;43.33
63622;BME280;49770;47.544;19.074;2023-03-23T07:12:23;100197.19;;;17.23;43.65
63622;BME280;49770;47.544;19.074;2023-03-23T07:15:25;100199.34;;;16.50;45.95
63622;BME280;49770;47.544;19.074;2023-03-23T07:18:29;100204.59;;;16.74;45.86
63622;BME280;49770;47.544;19.074;2023-03-23T07:21:32;100205.66;;;17.40;44.29
63622;BME280;49770;47.544;19.074;2023-03-23T07:24:34;100218.91;;;17.97;42.56
63622;BME280;49770;47.544;19.074;2023-03-23T07:27:37;100210.66;;;17.45;44.58
63622;BME280;49770;47.544;19.074;2023-03-23T07:30:39;100218.06;;;18.29;42.06
63622;BME280;49770;47.544;19.074;2023-03-23T07:33:40;100216.06;;;19.66;39.31
63622;BME280;49770;47.544;19.074;2023-03-23T07:36:43;100224.06;;;20.27;37.89
63622;BME280;49770;47.544;19.074;2023-03-23T07:39:46;100217.28;;;20.03;38.55
63622;BME280;49770;47.544;19.074;2023-03-23T07:42:53;100219.69;;;20.26;38.32
63622;BME280;49770;47.544;19.074;2023-03-23T07:45:57;100222.50;;;19.95;37.73
63622;BME280;49770;47.544;19.074;2023-03-23T07:48:59;100224.78;;;19.99;37.68
63622;BME280;49770;47.544;19.074;2023-03-23T07:52:02;100225.50;;;21.91;35.31
63622;BME280;49770;47.544;19.074;2023-03-23T07:55:06;100221.81;;;23.16;32.32
63622;BME280;49770;47.544;19.074;2023-03-23T07:58:09;100219.34;;;24.16;30.91
63622;BME280;49770;47.544;19.074;2023-03-23T08:01:11;100226.38;;;25.00;29.54
63622;BME280;49770;47.544;19.074;2023-03-23T08:04:14;100225.12;;;24.21;29.70
63622;BME280;49770;47.544;19.074;2023-03-23T08:07:18;100224.38;;;23.26;31.68
63622;BME280;49770;47.544;19.074;2023-03-23T08:10:22;100221.62;;;23.61;31.37
63622;BME280;49770;47.544;19.074;2023-03-23T08:13:25;100226.59;;;24.57;29.45
63622;BME280;49770;47.544;19.074;2023-03-23T08:16:27;100231.00;;;24.83;29.26
63622;BME280;49770;47.544;19.074;2023-03-23T08:19:30;100225.91;;;23.80;30.22
63622;BME280;49770;47.544;19.074;2023-03-23T08:22:32;100218.34;;;22.62;31.84
63622;BME280;49770;47.544;19.074;2023-03-23T08:25:37;100229.09;;;23.67;30.94
63622;BME280;49770;47.544;19.074;2023-03-23T08:28:39;100239.03;;;25.56;28.45
63622;BME280;49770;47.544;19.074;2023-03-23T08:31:42;100234.41;;;25.65;27.64
63622;BME280;49770;47.544;19.074;2023-03-23T08:34:48;100222.59;;;24.28;29.28
63622;BME280;49770;47.544;19.074;2023-03-23T08:37:51;100230.34;;;24.06;30.35
63622;BME280;49770;47.544;19.074;2023-03-23T08:40:58;100221.59;;;22.48;31.96
63622;BME280;49770;47.544;19.074;2023-03-23T08:44:03;100227.56;;;22.33;32.53
63622;BME280;49770;47.544;19.074;2023-03-23T08:47:06;100221.53;;;22.40;32.04
63622;BME280;49770;47.544;19.074;2023-03-23T08:50:12;100223.44;;;20.53;34.66
63622;BME280;49770;47.544;19.074;2023-03-23T08:53:15;100229.44;;;21.04;34.43
63622;BME280;49770;47.544;19.074;2023-03-23T08:56:17;100220.13;;;20.79;35.05
63622;BME280;49770;47.544;19.074;2023-03-23T08:59:19;100218.72;;;20.07;35.66
63622;BME280;49770;47.544;19.074;2023-03-23T09:02:22;100218.75;;;20.55;35.28
63622;BME280;49770;47.544;19.074;2023-03-23T09:05:26;100218.28;;;20.89;35.17
63622;BME280;49770;47.544;19.074;2023-03-23T09:08:30;100223.87;;;21.06;34.23
63622;BME280;49770;47.544;19.074;2023-03-23T09:11:34;100213.03;;;20.87;34.59
63622;BME280;49770;47.544;19.074;2023-03-23T09:14:36;100208.06;;;19.96;36.76
63622;BME280;49770;47.544;19.074;2023-03-23T09:17:44;100207.47;;;20.31;36.09
63622;BME280;49770;47.544;19.074;2023-03-23T09:20:46;100214.44;;;20.92;35.48
63622;BME280;49770;47.544;19.074;2023-03-23T09:23:48;100213.53;;;21.01;35.03
63622;BME280;49770;47.544;19.074;2023-03-23T09:26:51;100204.47;;;20.92;34.80
63622;BME280;49770;47.544;19.074;2023-03-23T09:29:53;100197.66;;;20.50;35.26
63622;BME280;49770;47.544;19.074;2023-03-23T09:32:57;100201.69;;;19.97;36.68
63622;BME280;49770;47.544;19.074;2023-03-23T09:35:59;100197.00;;;20.18;36.94
63622;BME280;49770;47.544;19.074;2023-03-23T09:39:01;100197.63;;;20.60;35.98
63622;BME280;49770;47.544;19.074;2023-03-23T09:46:08;100204.84;;;20.69;35.72
63622;BME280;49770;47.544;19.074;2023-03-23T09:49:20;100194.00;;;21.45;35.02
63622;BME280;49770;47.544;19.074;2023-03-23T09:52:29;100198.66;;;22.07;34.12
63622;BME280;49770;47.544;19.074;2023-03-23T09:55:34;100188.19;;;21.86;34.03
63622;BME280;49770;47.544;19.074;2023-03-23T09:58:45;100187.53;;;21.10;35.06
63622;BME280;49770;47.544;19.074;2023-03-23T10:01:50;100180.56;;;21.35;35.50
63622;BME280;49770;47.544;19.074;2023-03-23T10:04:56;100180.81;;;21.60;34.57
63622;BME280;49770;47.544;19.074;2023-03-23T10:08:02;100194.50;;;21.03;35.32
63622;BME280;49770;47.544;19.074;2023-03-23T10:11:23;100181.56;;;21.06;35.85
63622;BME280;49770;47.544;19.074;2023-03-23T10:14:50;100176.13;;;21.44;35.68
63622;BME280;49770;47.544;19.074;2023-03-23T10:18:00;100178.25;;;20.94;36.10
63622;BME280;49770;47.544;19.074;2023-03-23T10:21:02;100167.31;;;20.48;36.76
63622;BME280;49770;47.544;19.074;2023-03-23T10:24:10;100159.88;;;19.83;38.51
63622;BME280;49770;47.544;19.074;2023-03-23T10:30:34;100147.41;;;19.82;38.60
63622;BME280;49770;47.544;19.074;2023-03-23T10:33:48;100138.06;;;19.86;38.42
63622;BME280;49770;47.544;19.074;2023-03-23T10:37:16;100144.59;;;19.83;38.69
63622;BME280;49770;47.544;19.074;2023-03-23T10:40:22;100142.00;;;20.11;38.27
63622;BME280;49770;47.544;19.074;2023-03-23T10:43:28;100136.91;;;19.78;38.79
63622;BME280;49770;47.544;19.074;2023-03-23T10:49:55;100136.66;;;19.42;39.69
63622;BME280;49770;47.544;19.074;2023-03-23T10:53:00;100134.91;;;19.21;39.83
63622;BME280;49770;47.544;19.074;2023-03-23T10:56:17;100120.50;;;19.52;39.69
63622;BME280;49770;47.544;19.074;2023-03-23T10:59:26;100126.88;;;19.80;39.05
63622;BME280;49770;47.544;19.074;2023-03-23T11:02:29;100127.31;;;20.05;38.86
63622;BME280;49770;47.544;19.074;2023-03-23T11:05:44;100129.25;;;20.23;38.41
63622;BME280;49770;47.544;19.074;2023-03-23T11:11:54;100128.22;;;20.34;37.77
63622;BME280;49770;47.544;19.074;2023-03-23T11:15:09;100121.34;;;20.12;38.43
63622;BME280;49770;47.544;19.074;2023-03-23T11:21:38;100121.44;;;20.68;37.76
63622;BME280;49770;47.544;19.074;2023-03-23T11:24:42;100103.19;;;20.90;36.99
63622;BME280;49770;47.544;19.074;2023-03-23T11:27:45;100104.53;;;21.04;36.36
63622;BME280;49770;47.544;19.074;2023-03-23T11:30:48;100097.63;;;21.37;35.80
63622;BME280;49770;47.544;19.074;2023-03-23T11:34:02;100101.25;;;21.46;34.68
63622;BME280;49770;47.544;19.074;2023-03-23T11:37:08;100118.53;;;20.89;35.44
63622;BME280;49770;47.544;19.074;2023-03-23T11:40:17;100121.69;;;20.74;35.91
63622;BME280;49770;47.544;19.074;2023-03-23T11:43:22;100118.59;;;20.69;35.54
63622;BME280;49770;47.544;19.074;2023-03-23T11:46:33;100104.50;;;20.10;36.44
63622;BME280;49770;47.544;19.074;2023-03-23T11:49:47;100100.25;;;20.07;36.65
63622;BME280;49770;47.544;19.074;2023-03-23T11:53:13;100092.59;;;19.73;36.71
63622;BME280;49770;47.544;19.074;2023-03-23T11:56:24;100090.59;;;19.95;36.91
63622;BME280;49770;47.544;19.074;2023-03-23T11:59:32;100082.53;;;19.75;37.23
63622;BME280;49770;47.544;19.074;2023-03-23T12:19:21;100068.31;;;21.06;35.41
63622;BME280;49770;47.544;19.074;2023-03-23T12:23:08;100048.28;;;21.45;35.09
63622;BME280;49770;47.544;19.074;2023-03-23T12:26:25;100042.84;;;21.00;34.84
63622;BME280;49770;47.544;19.074;2023-03-23T12:33:26;100045.78;;;20.79;34.94
63622;BME280;49770;47.544;19.074;2023-03-23T12:43:27;100041.50;;;21.05;35.04
63622;BME280;49770;47.544;19.074;2023-03-23T12:50:11;100031.75;;;20.47;35.75
63622;BME280;49770;47.544;19.074;2023-03-23T12:53:26;100024.56;;;20.94;35.37
63622;BME280;49770;47.544;19.074;2023-03-23T12:56:49;100021.62;;;20.87;35.31
63622;BME280;49770;47.544;19.074;2023-03-23T12:59:59;100027.50;;;21.01;35.55
63622;BME280;49770;47.544;19.074;2023-03-23T13:03:14;100016.22;;;20.87;36.01
63622;BME280;49770;47.544;19.074;2023-03-23T13:06:37;100014.78;;;20.93;35.63
63622;BME280;49770;47.544;19.074;2023-03-23T13:13:13;100005.88;;;20.83;36.02
63622;BME280;49770;47.544;19.074;2023-03-23T13:22:50;100011.69;;;20.60;36.08
63622;BME280;49770;47.544;19.074;2023-03-23T13:25:59;100012.41;;;20.62;35.79
63622;BME280;49770;47.544;19.074;2023-03-23T13:29:08;100002.66;;;20.51;36.08
63622;BME280;49770;47.544;19.074;2023-03-23T13:32:17;100004.66;;;20.21;36.45
63622;BME280;49770;47.544;19.074;2023-03-23T13:35:19;100008.25;;;20.40;36.26
63622;BME280;49770;47.544;19.074;2023-03-23T13:38:26;100002.38;;;20.54;35.82
63622;BME280;49770;47.544;19.074;2023-03-23T13:41:30;99994.16;;;20.74;35.75
63622;BME280;49770;47.544;19.074;2023-03-23T13:48:05;99991.28;;;21.04;35.50
63622;BME280;49770;47.544;19.074;2023-03-23T13:51:25;99982.47;;;20.83;35.51
63622;BME280;49770;47.544;19.074;2023-03-23T13:54:39;99978.69;;;20.76;35.71
63622;BME280;49770;47.544;19.074;2023-03-23T13:57:58;99979.53;;;20.77;35.68
63622;BME280;49770;47.544;19.074;2023-03-23T14:01:12;99974.97;;;20.41;36.14
63622;BME280;49770;47.544;19.074;2023-03-23T14:04:19;99976.88;;;20.49;36.22
63622;BME280;49770;47.544;19.074;2023-03-23T14:07:21;99973.78;;;20.43;36.34
63622;BME280;49770;47.544;19.074;2023-03-23T14:10:49;99966.62;;;20.52;36.07
63622;BME280;49770;47.544;19.074;2023-03-23T14:17:25;99963.59;;;20.47;36.81
63622;BME280;49770;47.544;19.074;2023-03-23T14:20:32;99976.03;;;20.48;36.77
63622;BME280;49770;47.544;19.074;2023-03-23T14:23:35;99973.28;;;20.30;36.84
63622;BME280;49770;47.544;19.074;2023-03-23T14:26:37;99971.16;;;20.33;36.89
63622;BME280;49770;47.544;19.074;2023-03-23T14:29:39;99966.31;;;20.37;36.77
63622;BME280;49770;47.544;19.074;2023-03-23T14:32:42;99964.06;;;20.32;36.79
63622;BME280;49770;47.544;19.074;2023-03-23T14:35:45;99956.84;;;20.33;36.88
63622;BME280;49770;47.544;19.074;2023-03-23T14:42:14;99961.91;;;20.64;36.41
63622;BME280;49770;47.544;19.074;2023-03-23T14:45:19;99957.81;;;20.60;36.54
63622;BME280;49770;47.544;19.074;2023-03-23T14:48:21;99958.03;;;20.49;36.77
63622;BME280;49770;47.544;19.074;2023-03-23T14:51:23;99961.44;;;20.51;36.68
63622;BME280;49770;47.544;19.074;2023-03-23T14:54:27;99961.31;;;20.42;36.83
63622;BME280;49770;47.544;19.074;2023-03-23T14:57:29;99959.78;;;20.12;37.40
63622;BME280;49770;47.544;19.074;2023-03-23T15:00:45;99960.63;;;20.12;37.26
63622;BME280;49770;47.544;19.074;2023-03-23T15:04:23;99952.84;;;20.09;37.70
63622;BME280;49770;47.544;19.074;2023-03-23T15:07:31;99961.38;;;20.32;37.25
63622;BME280;49770;47.544;19.074;2023-03-23T15:10:33;99961.44;;;20.51;37.10
63622;BME280;49770;47.544;19.074;2023-03-23T15:13:36;99956.13;;;20.59;37.17
63622;BME280;49770;47.544;19.074;2023-03-23T15:16:38;99954.09;;;20.61;36.78
63622;BME280;49770;47.544;19.074;2023-03-23T15:19:46;99954.09;;;20.43;37.16
63622;BME280;49770;47.544;19.074;2023-03-23T15:22:48;99961.06;;;20.08;37.79
63622;BME280;49770;47.544;19.074;2023-03-23T15:25:52;99958.13;;;19.91;38.29
63622;BME280;49770;47.544;19.074;2023-03-23T15:29:05;99968.13;;;19.71;38.66
63622;BME280;49770;47.544;19.074;2023-03-23T15:32:11;99962.75;;;19.71;38.69
63622;BME280;49770;47.544;19.074;2023-03-23T15:35:20;99957.94;;;19.64;38.85
63622;BME280;49770;47.544;19.074;2023-03-23T15:38:25;99951.75;;;19.54;39.16
63622;BME280;49770;47.544;19.074;2023-03-23T15:41:30;99959.12;;;19.52;39.33
63622;BME280;49770;47.544;19.074;2023-03-23T15:44:33;99957.69;;;19.58;38.96
63622;BME280;49770;47.544;19.074;2023-03-23T15:50:46;99952.25;;;19.67;38.87
63622;BME280;49770;47.544;19.074;2023-03-23T15:53:51;99949.00;;;19.74;38.63
63622;BME280;49770;47.544;19.074;2023-03-23T15:56:53;99951.00;;;19.72;38.76
63622;BME280;49770;47.544;19.074;2023-03-23T15:59:54;99953.00;;;19.60;38.77
63622;BME280;49770;47.544;19.074;2023-03-23T16:03:00;99953.91;;;19.41;39.37
63622;BME280;49770;47.544;19.074;2023-03-23T16:06:04;99953.06;;;19.30;39.84
63622;BME280;49770;47.544;19.074;2023-03-23T16:09:16;99952.91;;;19.32;39.81
63622;BME280;49770;47.544;19.074;2023-03-23T16:12:20;99956.88;;;18.98;40.37
63622;BME280;49770;47.544;19.074;2023-03-23T16:15:23;99957.00;;;18.96;40.33
63622;BME280;49770;47.544;19.074;2023-03-23T16:18:26;99961.38;;;18.78;40.86
63622;BME280;49770;47.544;19.074;2023-03-23T16:21:28;99952.31;;;18.69;41.09
63622;BME280;49770;47.544;19.074;2023-03-23T16:24:32;99956.84;;;18.58;41.25
